sensor_id;sensor_type;location;lat;lon;timestamp;P1;durP1;ratioP1;P2;durP2;ratioP2
46593;SDS011;35342;52.378;4.648;2022-08-21T00:01:20;8.50;;;3.58;;
46593;SDS011;35342;52.378;4.648;2022-08-21T00:03:49;5.50;;;2.97;;
46593;SDS011;35342;52.378;4.648;2022-08-21T00:06:15;5.40;;;2.35;;
46593;SDS011;35342;52.378;4.648;2022-08-21T00:08:41;7.28;;;2.75;;
46593;SDS011;35342;52.378;4.648;2022-08-21T00:11:08;10.00;;;3.22;;
46593;SDS011;35342;52.378;4.648;2022-08-21T00:13:34;6.30;;;2.38;;
46593;SDS011;35342;52.378;4.648;2022-08-21T00:16:03;16.77;;;3.67;;
46593;SDS011;35342;52.378;4.648;2022-08-21T00:18:29;7.63;;;3.20;;
46593;SDS011;35342;52.378;4.648;2022-08-21T00:21:01;8.05;;;2.95;;
46593;SDS011;35342;52.378;4.648;2022-08-21T00:23:27;5.30;;;2.42;;
46593;SDS011;35342;52.378;4.648;2022-08-21T00:25:53;8.70;;;2.92;;
46593;SDS011;35342;52.378;4.648;2022-08-21T00:28:19;9.90;;;2.97;;
46593;SDS011;35342;52.378;4.648;2022-08-21T00:30:44;6.55;;;3.25;;
46593;SDS011;35342;52.378;4.648;2022-08-21T00:33:11;9.05;;;2.67;;
46593;SDS011;35342;52.378;4.648;2022-08-21T00:35:38;12.57;;;3.13;;
46593;SDS011;35342;52.378;4.648;2022-08-21T00:38:07;5.43;;;2.95;;
46593;SDS011;35342;52.378;4.648;2022-08-21T00:40:36;6.90;;;2.28;;
46593;SDS011;35342;52.378;4.648;2022-08-21T00:43:18;7.60;;;2.97;;
46593;SDS011;35342;52.378;4.648;2022-08-21T00:45:47;8.52;;;3.08;;
46593;SDS011;35342;52.378;4.648;2022-08-21T00:48:14;9.93;;;4.38;;
46593;SDS011;35342;52.378;4.648;2022-08-21T00:50:51;6.55;;;2.60;;
46593;SDS011;35342;52.378;4.648;2022-08-21T00:53:34;6.38;;;2.90;;
46593;SDS011;35342;52.378;4.648;2022-08-21T00:56:07;7.68;;;3.05;;
46593;SDS011;35342;52.378;4.648;2022-08-21T00:58:36;10.07;;;2.60;;
46593;SDS011;35342;52.378;4.648;2022-08-21T01:01:05;12.77;;;3.45;;
46593;SDS011;35342;52.378;4.648;2022-08-21T01:03:32;9.85;;;2.88;;
46593;SDS011;35342;52.378;4.648;2022-08-21T01:06:00;12.63;;;4.07;;
46593;SDS011;35342;52.378;4.648;2022-08-21T01:08:32;7.35;;;2.80;;
46593;SDS011;35342;52.378;4.648;2022-08-21T01:10:59;15.57;;;4.68;;
46593;SDS011;35342;52.378;4.648;2022-08-21T01:13:28;9.43;;;3.30;;
46593;SDS011;35342;52.378;4.648;2022-08-21T01:15:59;7.68;;;3.90;;
46593;SDS011;35342;52.378;4.648;2022-08-21T01:18:30;8.75;;;3.47;;
46593;SDS011;35342;52.378;4.648;2022-08-21T01:21:05;10.85;;;3.40;;
46593;SDS011;35342;52.378;4.648;2022-08-21T01:23:39;6.55;;;3.05;;
46593;SDS011;35342;52.378;4.648;2022-08-21T01:26:09;13.25;;;3.38;;
46593;SDS011;35342;52.378;4.648;2022-08-21T01:28:44;6.47;;;3.28;;
46593;SDS011;35342;52.378;4.648;2022-08-21T01:31:30;13.05;;;4.80;;
46593;SDS011;35342;52.378;4.648;2022-08-21T01:33:58;7.72;;;2.92;;
46593;SDS011;35342;52.378;4.648;2022-08-21T01:36:24;14.73;;;3.28;;
46593;SDS011;35342;52.378;4.648;2022-08-21T01:38:51;9.48;;;3.80;;
46593;SDS011;35342;52.378;4.648;2022-08-21T01:41:17;17.98;;;4.32;;
46593;SDS011;35342;52.378;4.648;2022-08-21T01:43:43;7.55;;;3.70;;
46593;SDS011;35342;52.378;4.648;2022-08-21T01:46:10;8.57;;;3.20;;
46593;SDS011;35342;52.378;4.648;2022-08-21T01:48:37;6.88;;;2.78;;
46593;SDS011;35342;52.378;4.648;2022-08-21T01:51:03;11.57;;;3.35;;
46593;SDS011;35342;52.378;4.648;2022-08-21T01:53:31;8.60;;;3.45;;
46593;SDS011;35342;52.378;4.648;2022-08-21T01:56:00;7.32;;;3.40;;
46593;SDS011;35342;52.378;4.648;2022-08-21T01:58:29;10.07;;;3.00;;
46593;SDS011;35342;52.378;4.648;2022-08-21T02:00:54;7.15;;;3.33;;
46593;SDS011;35342;52.378;4.648;2022-08-21T02:03:23;4.45;;;2.88;;
46593;SDS011;35342;52.378;4.648;2022-08-21T02:05:49;10.63;;;3.17;;
46593;SDS011;35342;52.378;4.648;2022-08-21T02:08:15;8.00;;;2.47;;
46593;SDS011;35342;52.378;4.648;2022-08-21T02:10:41;6.63;;;2.60;;
46593;SDS011;35342;52.378;4.648;2022-08-21T02:13:07;9.43;;;2.58;;
46593;SDS011;35342;52.378;4.648;2022-08-21T02:15:33;11.00;;;3.42;;
46593;SDS011;35342;52.378;4.648;2022-08-21T02:18:00;8.75;;;3.03;;
46593;SDS011;35342;52.378;4.648;2022-08-21T02:20:29;7.50;;;2.85;;
46593;SDS011;35342;52.378;4.648;2022-08-21T02:22:58;10.18;;;3.17;;
46593;SDS011;35342;52.378;4.648;2022-08-21T02:25:24;6.63;;;2.67;;
46593;SDS011;35342;52.378;4.648;2022-08-21T02:27:53;9.38;;;2.83;;
46593;SDS011;35342;52.378;4.648;2022-08-21T02:30:28;7.38;;;2.10;;
46593;SDS011;35342;52.378;4.648;2022-08-21T02:32:58;12.50;;;3.38;;
46593;SDS011;35342;52.378;4.648;2022-08-21T02:35:25;11.13;;;3.35;;
46593;SDS011;35342;52.378;4.648;2022-08-21T02:37:53;9.93;;;3.90;;
46593;SDS011;35342;52.378;4.648;2022-08-21T02:40:24;6.97;;;2.53;;
46593;SDS011;35342;52.378;4.648;2022-08-21T02:42:55;5.32;;;2.17;;
46593;SDS011;35342;52.378;4.648;2022-08-21T02:45:22;7.85;;;2.42;;
46593;SDS011;35342;52.378;4.648;2022-08-21T02:50:21;8.05;;;2.90;;
46593;SDS011;35342;52.378;4.648;2022-08-21T02:53:06;6.38;;;2.67;;
46593;SDS011;35342;52.378;4.648;2022-08-21T02:55:35;9.88;;;2.95;;
46593;SDS011;35342;52.378;4.648;2022-08-21T02:58:03;6.75;;;2.47;;
46593;SDS011;35342;52.378;4.648;2022-08-21T03:00:34;6.95;;;2.72;;
46593;SDS011;35342;52.378;4.648;2022-08-21T03:03:02;7.03;;;2.75;;
46593;SDS011;35342;52.378;4.648;2022-08-21T03:05:29;12.63;;;3.78;;
46593;SDS011;35342;52.378;4.648;2022-08-21T03:07:58;9.65;;;2.83;;
46593;SDS011;35342;52.378;4.648;2022-08-21T03:10:26;10.00;;;3.35;;
46593;SDS011;35342;52.378;4.648;2022-08-21T03:12:56;9.40;;;2.83;;
46593;SDS011;35342;52.378;4.648;2022-08-21T03:15:22;5.50;;;2.55;;
46593;SDS011;35342;52.378;4.648;2022-08-21T03:17:49;8.02;;;2.55;;
46593;SDS011;35342;52.378;4.648;2022-08-21T03:20:18;11.40;;;3.30;;
46593;SDS011;35342;52.378;4.648;2022-08-21T03:22:47;9.35;;;3.60;;
46593;SDS011;35342;52.378;4.648;2022-08-21T03:25:16;7.57;;;2.67;;
46593;SDS011;35342;52.378;4.648;2022-08-21T03:27:43;9.27;;;2.97;;
46593;SDS011;35342;52.378;4.648;2022-08-21T03:30:10;6.03;;;2.53;;
46593;SDS011;35342;52.378;4.648;2022-08-21T03:32:36;6.75;;;3.65;;
46593;SDS011;35342;52.378;4.648;2022-08-21T03:35:03;5.45;;;3.20;;
46593;SDS011;35342;52.378;4.648;2022-08-21T03:37:29;7.25;;;2.70;;
46593;SDS011;35342;52.378;4.648;2022-08-21T03:39:57;8.18;;;3.42;;
46593;SDS011;35342;52.378;4.648;2022-08-21T03:42:22;6.47;;;3.30;;
46593;SDS011;35342;52.378;4.648;2022-08-21T03:44:48;8.50;;;2.97;;
46593;SDS011;35342;52.378;4.648;2022-08-21T03:47:14;8.82;;;3.60;;
46593;SDS011;35342;52.378;4.648;2022-08-21T03:49:40;10.18;;;3.00;;
46593;SDS011;35342;52.378;4.648;2022-08-21T03:52:06;11.55;;;4.45;;
46593;SDS011;35342;52.378;4.648;2022-08-21T03:54:32;7.20;;;2.83;;
46593;SDS011;35342;52.378;4.648;2022-08-21T03:56:58;10.43;;;2.97;;
46593;SDS011;35342;52.378;4.648;2022-08-21T03:59:24;9.27;;;3.50;;
46593;SDS011;35342;52.378;4.648;2022-08-21T04:01:51;7.60;;;2.80;;
46593;SDS011;35342;52.378;4.648;2022-08-21T04:04:24;8.45;;;3.78;;
46593;SDS011;35342;52.378;4.648;2022-08-21T04:06:52;8.32;;;2.97;;
46593;SDS011;35342;52.378;4.648;2022-08-21T04:09:18;9.98;;;2.78;;
46593;SDS011;35342;52.378;4.648;2022-08-21T04:11:47;10.20;;;3.10;;
46593;SDS011;35342;52.378;4.648;2022-08-21T04:14:13;8.52;;;3.42;;
46593;SDS011;35342;52.378;4.648;2022-08-21T04:16:42;10.18;;;3.63;;
46593;SDS011;35342;52.378;4.648;2022-08-21T04:19:09;15.25;;;4.25;;
46593;SDS011;35342;52.378;4.648;2022-08-21T04:21:38;6.15;;;2.97;;
46593;SDS011;35342;52.378;4.648;2022-08-21T04:24:05;10.05;;;3.08;;
46593;SDS011;35342;52.378;4.648;2022-08-21T04:26:34;12.38;;;3.00;;
46593;SDS011;35342;52.378;4.648;2022-08-21T04:29:02;9.88;;;3.97;;
46593;SDS011;35342;52.378;4.648;2022-08-21T04:31:31;8.77;;;2.88;;
46593;SDS011;35342;52.378;4.648;2022-08-21T04:33:58;8.75;;;3.05;;
46593;SDS011;35342;52.378;4.648;2022-08-21T04:36:25;5.97;;;3.33;;
46593;SDS011;35342;52.378;4.648;2022-08-21T04:38:50;6.97;;;2.92;;
46593;SDS011;35342;52.378;4.648;2022-08-21T04:41:16;8.27;;;4.20;;
46593;SDS011;35342;52.378;4.648;2022-08-21T04:43:43;7.55;;;3.08;;
46593;SDS011;35342;52.378;4.648;2022-08-21T04:46:09;7.18;;;3.63;;
46593;SDS011;35342;52.378;4.648;2022-08-21T04:48:35;11.38;;;3.25;;
46593;SDS011;35342;52.378;4.648;2022-08-21T04:56:33;11.93;;;3.65;;
46593;SDS011;35342;52.378;4.648;2022-08-21T04:59:11;12.05;;;3.60;;
46593;SDS011;35342;52.378;4.648;2022-08-21T05:01:44;10.53;;;3.57;;
46593;SDS011;35342;52.378;4.648;2022-08-21T05:04:14;12.70;;;3.88;;
46593;SDS011;35342;52.378;4.648;2022-08-21T05:06:43;8.30;;;3.13;;
46593;SDS011;35342;52.378;4.648;2022-08-21T05:09:12;12.80;;;3.50;;
46593;SDS011;35342;52.378;4.648;2022-08-21T05:11:41;10.38;;;3.22;;
46593;SDS011;35342;52.378;4.648;2022-08-21T05:14:08;10.68;;;3.42;;
46593;SDS011;35342;52.378;4.648;2022-08-21T05:16:36;7.63;;;3.13;;
46593;SDS011;35342;52.378;4.648;2022-08-21T05:19:02;9.75;;;3.58;;
46593;SDS011;35342;52.378;4.648;2022-08-21T05:21:30;13.73;;;3.30;;
46593;SDS011;35342;52.378;4.648;2022-08-21T05:23:56;11.00;;;3.53;;
46593;SDS011;35342;52.378;4.648;2022-08-21T05:26:22;12.15;;;3.63;;
46593;SDS011;35342;52.378;4.648;2022-08-21T05:28:48;10.75;;;3.65;;
46593;SDS011;35342;52.378;4.648;2022-08-21T05:31:14;5.55;;;3.05;;
46593;SDS011;35342;52.378;4.648;2022-08-21T05:33:39;7.25;;;2.95;;
46593;SDS011;35342;52.378;4.648;2022-08-21T05:36:05;9.75;;;3.28;;
46593;SDS011;35342;52.378;4.648;2022-08-21T05:38:31;10.23;;;4.03;;
46593;SDS011;35342;52.378;4.648;2022-08-21T05:40:57;11.07;;;3.97;;
46593;SDS011;35342;52.378;4.648;2022-08-21T05:43:23;5.88;;;3.20;;
46593;SDS011;35342;52.378;4.648;2022-08-21T05:45:49;9.05;;;3.30;;
46593;SDS011;35342;52.378;4.648;2022-08-21T05:48:22;5.97;;;2.63;;
46593;SDS011;35342;52.378;4.648;2022-08-21T05:50:50;9.18;;;3.13;;
46593;SDS011;35342;52.378;4.648;2022-08-21T05:53:17;7.75;;;3.10;;
46593;SDS011;35342;52.378;4.648;2022-08-21T05:55:46;7.40;;;3.17;;
46593;SDS011;35342;52.378;4.648;2022-08-21T05:58:13;8.52;;;3.42;;
46593;SDS011;35342;52.378;4.648;2022-08-21T06:00:45;10.43;;;3.22;;
46593;SDS011;35342;52.378;4.648;2022-08-21T06:03:13;11.13;;;3.00;;
46593;SDS011;35342;52.378;4.648;2022-08-21T06:05:43;5.22;;;2.58;;
46593;SDS011;35342;52.378;4.648;2022-08-21T06:08:10;8.30;;;3.28;;
46593;SDS011;35342;52.378;4.648;2022-08-21T06:10:36;8.77;;;3.55;;
46593;SDS011;35342;52.378;4.648;2022-08-21T06:13:02;5.78;;;2.70;;
46593;SDS011;35342;52.378;4.648;2022-08-21T06:15:29;5.35;;;2.70;;
46593;SDS011;35342;52.378;4.648;2022-08-21T06:17:55;8.05;;;3.05;;
46593;SDS011;35342;52.378;4.648;2022-08-21T06:20:21;6.80;;;2.72;;
46593;SDS011;35342;52.378;4.648;2022-08-21T06:22:47;8.32;;;2.83;;
46593;SDS011;35342;52.378;4.648;2022-08-21T06:25:14;10.40;;;3.28;;
46593;SDS011;35342;52.378;4.648;2022-08-21T06:27:40;6.75;;;2.65;;
46593;SDS011;35342;52.378;4.648;2022-08-21T06:30:08;10.27;;;3.33;;
46593;SDS011;35342;52.378;4.648;2022-08-21T06:32:35;6.13;;;2.20;;
46593;SDS011;35342;52.378;4.648;2022-08-21T06:35:04;5.55;;;2.80;;
46593;SDS011;35342;52.378;4.648;2022-08-21T06:37:33;5.75;;;2.50;;
46593;SDS011;35342;52.378;4.648;2022-08-21T06:39:59;7.05;;;2.70;;
46593;SDS011;35342;52.378;4.648;2022-08-21T06:42:26;7.85;;;2.83;;
46593;SDS011;35342;52.378;4.648;2022-08-21T06:44:53;10.63;;;2.70;;
46593;SDS011;35342;52.378;4.648;2022-08-21T06:47:19;9.20;;;2.85;;
46593;SDS011;35342;52.378;4.648;2022-08-21T06:49:44;6.57;;;2.63;;
46593;SDS011;35342;52.378;4.648;2022-08-21T06:52:16;8.48;;;2.65;;
46593;SDS011;35342;52.378;4.648;2022-08-21T06:54:42;7.68;;;3.10;;
46593;SDS011;35342;52.378;4.648;2022-08-21T06:57:08;8.93;;;2.65;;
46593;SDS011;35342;52.378;4.648;2022-08-21T06:59:34;7.80;;;2.97;;
46593;SDS011;35342;52.378;4.648;2022-08-21T07:01:59;6.78;;;2.10;;
46593;SDS011;35342;52.378;4.648;2022-08-21T07:04:25;5.95;;;2.53;;
46593;SDS011;35342;52.378;4.648;2022-08-21T07:06:51;8.73;;;2.35;;
46593;SDS011;35342;52.378;4.648;2022-08-21T07:09:18;4.30;;;1.92;;
46593;SDS011;35342;52.378;4.648;2022-08-21T07:11:44;10.50;;;2.47;;
46593;SDS011;35342;52.378;4.648;2022-08-21T07:14:16;6.43;;;1.98;;
46593;SDS011;35342;52.378;4.648;2022-08-21T07:16:42;6.22;;;2.20;;
46593;SDS011;35342;52.378;4.648;2022-08-21T07:19:07;5.13;;;1.70;;
46593;SDS011;35342;52.378;4.648;2022-08-21T07:21:33;9.93;;;2.15;;
46593;SDS011;35342;52.378;4.648;2022-08-21T07:23:59;11.57;;;2.63;;
46593;SDS011;35342;52.378;4.648;2022-08-21T07:26:25;7.28;;;1.88;;
46593;SDS011;35342;52.378;4.648;2022-08-21T07:28:51;8.77;;;1.95;;
46593;SDS011;35342;52.378;4.648;2022-08-21T07:31:18;7.47;;;2.45;;
46593;SDS011;35342;52.378;4.648;2022-08-21T07:33:47;6.63;;;1.90;;
46593;SDS011;35342;52.378;4.648;2022-08-21T07:36:14;5.25;;;1.60;;
46593;SDS011;35342;52.378;4.648;2022-08-21T07:38:40;8.57;;;2.30;;
46593;SDS011;35342;52.378;4.648;2022-08-21T07:41:13;6.05;;;1.98;;
46593;SDS011;35342;52.378;4.648;2022-08-21T07:43:50;10.05;;;2.65;;
46593;SDS011;35342;52.378;4.648;2022-08-21T07:46:17;6.45;;;2.05;;
46593;SDS011;35342;52.378;4.648;2022-08-21T07:48:44;12.65;;;2.50;;
46593;SDS011;35342;52.378;4.648;2022-08-21T07:51:11;8.13;;;2.20;;
46593;SDS011;35342;52.378;4.648;2022-08-21T07:53:40;6.43;;;1.67;;
46593;SDS011;35342;52.378;4.648;2022-08-21T07:56:14;6.82;;;2.20;;
46593;SDS011;35342;52.378;4.648;2022-08-21T07:58:41;7.13;;;1.90;;
46593;SDS011;35342;52.378;4.648;2022-08-21T08:01:06;9.50;;;2.00;;
46593;SDS011;35342;52.378;4.648;2022-08-21T08:03:34;5.75;;;1.95;;
46593;SDS011;35342;52.378;4.648;2022-08-21T08:06:01;9.10;;;2.15;;
46593;SDS011;35342;52.378;4.648;2022-08-21T08:08:29;11.95;;;2.30;;
46593;SDS011;35342;52.378;4.648;2022-08-21T08:10:56;5.65;;;1.70;;
46593;SDS011;35342;52.378;4.648;2022-08-21T08:13:24;7.82;;;2.03;;
46593;SDS011;35342;52.378;4.648;2022-08-21T08:15:52;9.23;;;1.90;;
46593;SDS011;35342;52.378;4.648;2022-08-21T08:18:19;9.57;;;2.10;;
46593;SDS011;35342;52.378;4.648;2022-08-21T08:20:45;7.45;;;2.60;;
46593;SDS011;35342;52.378;4.648;2022-08-21T08:23:11;11.00;;;2.35;;
46593;SDS011;35342;52.378;4.648;2022-08-21T08:25:39;4.68;;;2.08;;
46593;SDS011;35342;52.378;4.648;2022-08-21T08:28:05;10.60;;;2.55;;
46593;SDS011;35342;52.378;4.648;2022-08-21T08:30:32;7.63;;;1.55;;
46593;SDS011;35342;52.378;4.648;2022-08-21T08:33:00;7.80;;;1.98;;
46593;SDS011;35342;52.378;4.648;2022-08-21T08:35:26;9.23;;;2.05;;
46593;SDS011;35342;52.378;4.648;2022-08-21T08:37:53;11.20;;;3.47;;
46593;SDS011;35342;52.378;4.648;2022-08-21T08:43:23;8.37;;;2.57;;
46593;SDS011;35342;52.378;4.648;2022-08-21T08:45:54;10.38;;;1.65;;
46593;SDS011;35342;52.378;4.648;2022-08-21T08:49:06;9.00;;;1.98;;
46593;SDS011;35342;52.378;4.648;2022-08-21T08:51:37;7.60;;;1.80;;
46593;SDS011;35342;52.378;4.648;2022-08-21T08:54:36;5.70;;;1.73;;
46593;SDS011;35342;52.378;4.648;2022-08-21T08:57:16;7.43;;;1.85;;
46593;SDS011;35342;52.378;4.648;2022-08-21T08:59:49;5.03;;;1.63;;
46593;SDS011;35342;52.378;4.648;2022-08-21T09:02:20;7.95;;;2.00;;
46593;SDS011;35342;52.378;4.648;2022-08-21T09:04:48;6.38;;;1.50;;
46593;SDS011;35342;52.378;4.648;2022-08-21T09:10:06;6.78;;;2.13;;
46593;SDS011;35342;52.378;4.648;2022-08-21T09:19:07;6.72;;;2.10;;
46593;SDS011;35342;52.378;4.648;2022-08-21T09:27:14;5.30;;;1.92;;
46593;SDS011;35342;52.378;4.648;2022-08-21T09:29:44;7.65;;;1.95;;
46593;SDS011;35342;52.378;4.648;2022-08-21T09:32:23;4.80;;;1.75;;
46593;SDS011;35342;52.378;4.648;2022-08-21T09:34:58;6.07;;;1.50;;
46593;SDS011;35342;52.378;4.648;2022-08-21T09:37:34;6.25;;;1.63;;
46593;SDS011;35342;52.378;4.648;2022-08-21T09:43:02;7.30;;;2.35;;
46593;SDS011;35342;52.378;4.648;2022-08-21T09:45:48;5.35;;;1.48;;
46593;SDS011;35342;52.378;4.648;2022-08-21T09:48:46;3.42;;;0.98;;
46593;SDS011;35342;52.378;4.648;2022-08-21T09:51:19;6.97;;;1.52;;
46593;SDS011;35342;52.378;4.648;2022-08-21T09:53:51;4.60;;;1.38;;
46593;SDS011;35342;52.378;4.648;2022-08-21T09:56:37;5.18;;;1.55;;
46593;SDS011;35342;52.378;4.648;2022-08-21T09:59:54;3.40;;;1.38;;
46593;SDS011;35342;52.378;4.648;2022-08-21T10:02:28;5.97;;;1.90;;
46593;SDS011;35342;52.378;4.648;2022-08-21T10:05:01;6.55;;;1.45;;
46593;SDS011;35342;52.378;4.648;2022-08-21T10:07:40;4.47;;;1.13;;
46593;SDS011;35342;52.378;4.648;2022-08-21T10:10:17;6.47;;;1.73;;
46593;SDS011;35342;52.378;4.648;2022-08-21T10:24:29;2.63;;;0.98;;
46593;SDS011;35342;52.378;4.648;2022-08-21T10:27:06;4.80;;;1.58;;
46593;SDS011;35342;52.378;4.648;2022-08-21T10:30:05;4.05;;;0.85;;
46593;SDS011;35342;52.378;4.648;2022-08-21T10:38:55;2.78;;;1.20;;
46593;SDS011;35342;52.378;4.648;2022-08-21T10:44:56;5.13;;;1.30;;
46593;SDS011;35342;52.378;4.648;2022-08-21T10:48:37;3.40;;;1.00;;
46593;SDS011;35342;52.378;4.648;2022-08-21T10:56:42;4.47;;;1.40;;
46593;SDS011;35342;52.378;4.648;2022-08-21T11:01:58;5.28;;;1.23;;
46593;SDS011;35342;52.378;4.648;2022-08-21T11:05:00;6.40;;;1.48;;
46593;SDS011;35342;52.378;4.648;2022-08-21T11:07:47;2.60;;;1.00;;
46593;SDS011;35342;52.378;4.648;2022-08-21T11:13:40;6.50;;;1.80;;
46593;SDS011;35342;52.378;4.648;2022-08-21T11:16:33;2.80;;;1.45;;
46593;SDS011;35342;52.378;4.648;2022-08-21T11:22:18;5.63;;;1.92;;
46593;SDS011;35342;52.378;4.648;2022-08-21T11:36:42;4.40;;;1.33;;
46593;SDS011;35342;52.378;4.648;2022-08-21T11:42:29;6.25;;;1.38;;
46593;SDS011;35342;52.378;4.648;2022-08-21T11:45:41;3.80;;;1.13;;
46593;SDS011;35342;52.378;4.648;2022-08-21T11:51:41;5.97;;;1.40;;
46593;SDS011;35342;52.378;4.648;2022-08-21T11:56:51;5.45;;;1.42;;
46593;SDS011;35342;52.378;4.648;2022-08-21T12:02:15;6.38;;;2.28;;
46593;SDS011;35342;52.378;4.648;2022-08-21T12:04:57;3.67;;;1.63;;
46593;SDS011;35342;52.378;4.648;2022-08-21T12:07:35;5.47;;;1.43;;
46593;SDS011;35342;52.378;4.648;2022-08-21T12:10:06;8.90;;;2.20;;
46593;SDS011;35342;52.378;4.648;2022-08-21T12:12:38;3.85;;;1.17;;
46593;SDS011;35342;52.378;4.648;2022-08-21T12:15:15;5.70;;;1.80;;
46593;SDS011;35342;52.378;4.648;2022-08-21T12:18:00;3.53;;;1.52;;
46593;SDS011;35342;52.378;4.648;2022-08-21T12:28:25;8.27;;;1.80;;
46593;SDS011;35342;52.378;4.648;2022-08-21T12:30:52;6.28;;;2.20;;
46593;SDS011;35342;52.378;4.648;2022-08-21T12:33:26;7.95;;;1.63;;
46593;SDS011;35342;52.378;4.648;2022-08-21T12:39:03;7.43;;;1.35;;
46593;SDS011;35342;52.378;4.648;2022-08-21T12:41:48;4.10;;;1.42;;
46593;SDS011;35342;52.378;4.648;2022-08-21T12:44:22;6.13;;;1.63;;
46593;SDS011;35342;52.378;4.648;2022-08-21T12:47:06;4.00;;;1.50;;
46593;SDS011;35342;52.378;4.648;2022-08-21T12:50:01;6.18;;;1.52;;
46593;SDS011;35342;52.378;4.648;2022-08-21T12:55:28;4.00;;;1.45;;
46593;SDS011;35342;52.378;4.648;2022-08-21T12:57:58;4.72;;;1.73;;
46593;SDS011;35342;52.378;4.648;2022-08-21T13:00:25;7.78;;;2.78;;
46593;SDS011;35342;52.378;4.648;2022-08-21T13:02:53;7.65;;;1.85;;
46593;SDS011;35342;52.378;4.648;2022-08-21T13:07:56;6.95;;;2.00;;
46593;SDS011;35342;52.378;4.648;2022-08-21T13:10:28;7.63;;;1.85;;
46593;SDS011;35342;52.378;4.648;2022-08-21T13:12:57;5.18;;;2.08;;
46593;SDS011;35342;52.378;4.648;2022-08-21T13:15:29;4.10;;;1.02;;
46593;SDS011;35342;52.378;4.648;2022-08-21T13:17:59;5.18;;;1.20;;
46593;SDS011;35342;52.378;4.648;2022-08-21T13:20:32;4.18;;;1.10;;
46593;SDS011;35342;52.378;4.648;2022-08-21T13:23:06;6.00;;;1.67;;
46593;SDS011;35342;52.378;4.648;2022-08-21T13:25:51;7.18;;;1.63;;
46593;SDS011;35342;52.378;4.648;2022-08-21T13:28:17;8.80;;;1.55;;
46593;SDS011;35342;52.378;4.648;2022-08-21T13:30:58;7.15;;;2.28;;
46593;SDS011;35342;52.378;4.648;2022-08-21T13:33:27;6.10;;;1.70;;
46593;SDS011;35342;52.378;4.648;2022-08-21T13:36:06;6.15;;;1.50;;
46593;SDS011;35342;52.378;4.648;2022-08-21T13:38:41;6.63;;;1.30;;
46593;SDS011;35342;52.378;4.648;2022-08-21T13:46:16;8.10;;;1.67;;
46593;SDS011;35342;52.378;4.648;2022-08-21T13:48:46;6.72;;;1.67;;
46593;SDS011;35342;52.378;4.648;2022-08-21T13:51:13;7.75;;;1.88;;
46593;SDS011;35342;52.378;4.648;2022-08-21T13:56:09;6.03;;;1.50;;
46593;SDS011;35342;52.378;4.648;2022-08-21T13:58:59;8.73;;;1.45;;
46593;SDS011;35342;52.378;4.648;2022-08-21T14:01:27;7.13;;;1.42;;
46593;SDS011;35342;52.378;4.648;2022-08-21T14:04:14;7.88;;;2.88;;
46593;SDS011;35342;52.378;4.648;2022-08-21T14:06:49;5.10;;;1.48;;
46593;SDS011;35342;52.378;4.648;2022-08-21T14:09:28;5.82;;;1.20;;
46593;SDS011;35342;52.378;4.648;2022-08-21T14:12:14;4.45;;;2.03;;
46593;SDS011;35342;52.378;4.648;2022-08-21T14:15:04;5.18;;;1.55;;
46593;SDS011;35342;52.378;4.648;2022-08-21T14:17:36;5.43;;;1.50;;
46593;SDS011;35342;52.378;4.648;2022-08-21T14:20:06;6.25;;;1.52;;
46593;SDS011;35342;52.378;4.648;2022-08-21T14:22:43;5.45;;;1.90;;
46593;SDS011;35342;52.378;4.648;2022-08-21T14:25:13;5.30;;;2.05;;
46593;SDS011;35342;52.378;4.648;2022-08-21T14:30:33;7.50;;;2.10;;
46593;SDS011;35342;52.378;4.648;2022-08-21T14:33:04;7.53;;;1.55;;
46593;SDS011;35342;52.378;4.648;2022-08-21T14:35:36;6.70;;;1.98;;
46593;SDS011;35342;52.378;4.648;2022-08-21T14:38:12;5.97;;;1.77;;
46593;SDS011;35342;52.378;4.648;2022-08-21T14:40:43;9.73;;;1.58;;
46593;SDS011;35342;52.378;4.648;2022-08-21T14:43:17;7.25;;;1.27;;
46593;SDS011;35342;52.378;4.648;2022-08-21T14:45:44;8.85;;;1.58;;
46593;SDS011;35342;52.378;4.648;2022-08-21T14:48:11;5.20;;;1.60;;
46593;SDS011;35342;52.378;4.648;2022-08-21T14:50:37;3.00;;;0.90;;
46593;SDS011;35342;52.378;4.648;2022-08-21T14:53:04;6.13;;;1.33;;
46593;SDS011;35342;52.378;4.648;2022-08-21T14:55:32;4.57;;;1.30;;
46593;SDS011;35342;52.378;4.648;2022-08-21T14:58:21;5.07;;;1.23;;
46593;SDS011;35342;52.378;4.648;2022-08-21T15:00:52;2.78;;;1.00;;
46593;SDS011;35342;52.378;4.648;2022-08-21T15:03:23;6.20;;;1.20;;
46593;SDS011;35342;52.378;4.648;2022-08-21T15:05:50;7.57;;;2.45;;
46593;SDS011;35342;52.378;4.648;2022-08-21T15:08:17;8.10;;;2.05;;
46593;SDS011;35342;52.378;4.648;2022-08-21T15:10:43;6.90;;;1.17;;
46593;SDS011;35342;52.378;4.648;2022-08-21T15:13:11;2.97;;;1.30;;
46593;SDS011;35342;52.378;4.648;2022-08-21T15:15:43;4.20;;;1.20;;
46593;SDS011;35342;52.378;4.648;2022-08-21T15:18:10;5.80;;;1.58;;
46593;SDS011;35342;52.378;4.648;2022-08-21T15:20:36;5.03;;;1.70;;
46593;SDS011;35342;52.378;4.648;2022-08-21T15:23:03;5.00;;;1.15;;
46593;SDS011;35342;52.378;4.648;2022-08-21T15:25:31;3.53;;;2.28;;
46593;SDS011;35342;52.378;4.648;2022-08-21T15:27:58;6.20;;;1.83;;
46593;SDS011;35342;52.378;4.648;2022-08-21T15:30:26;7.68;;;3.00;;
46593;SDS011;35342;52.378;4.648;2022-08-21T15:32:55;5.13;;;1.65;;
46593;SDS011;35342;52.378;4.648;2022-08-21T15:35:24;3.60;;;1.42;;
46593;SDS011;35342;52.378;4.648;2022-08-21T15:37:50;8.02;;;1.65;;
46593;SDS011;35342;52.378;4.648;2022-08-21T15:40:16;3.97;;;1.08;;
46593;SDS011;35342;52.378;4.648;2022-08-21T15:42:42;3.17;;;1.50;;
46593;SDS011;35342;52.378;4.648;2022-08-21T15:45:12;5.57;;;1.75;;
46593;SDS011;35342;52.378;4.648;2022-08-21T15:47:38;4.15;;;1.00;;
46593;SDS011;35342;52.378;4.648;2022-08-21T15:50:09;3.85;;;1.13;;
46593;SDS011;35342;52.378;4.648;2022-08-21T15:52:37;5.43;;;1.52;;
46593;SDS011;35342;52.378;4.648;2022-08-21T15:55:04;4.38;;;1.95;;
46593;SDS011;35342;52.378;4.648;2022-08-21T15:57:31;7.38;;;1.98;;
46593;SDS011;35342;52.378;4.648;2022-08-21T15:59:59;3.05;;;1.38;;
46593;SDS011;35342;52.378;4.648;2022-08-21T16:02:38;6.15;;;1.25;;
46593;SDS011;35342;52.378;4.648;2022-08-21T16:05:09;5.65;;;1.80;;
46593;SDS011;35342;52.378;4.648;2022-08-21T16:07:37;5.40;;;1.63;;
46593;SDS011;35342;52.378;4.648;2022-08-21T16:10:06;6.25;;;1.33;;
46593;SDS011;35342;52.378;4.648;2022-08-21T16:12:34;11.35;;;1.67;;
46593;SDS011;35342;52.378;4.648;2022-08-21T16:15:09;5.43;;;1.58;;
46593;SDS011;35342;52.378;4.648;2022-08-21T16:17:38;6.70;;;1.05;;
46593;SDS011;35342;52.378;4.648;2022-08-21T16:20:10;3.22;;;1.65;;
46593;SDS011;35342;52.378;4.648;2022-08-21T16:22:41;7.88;;;2.47;;
46593;SDS011;35342;52.378;4.648;2022-08-21T16:25:06;5.20;;;1.58;;
46593;SDS011;35342;52.378;4.648;2022-08-21T16:27:33;4.60;;;1.48;;
46593;SDS011;35342;52.378;4.648;2022-08-21T16:30:00;3.40;;;1.20;;
46593;SDS011;35342;52.378;4.648;2022-08-21T16:32:29;10.85;;;1.92;;
46593;SDS011;35342;52.378;4.648;2022-08-21T16:34:55;7.68;;;1.30;;
46593;SDS011;35342;52.378;4.648;2022-08-21T16:37:22;7.85;;;1.60;;
46593;SDS011;35342;52.378;4.648;2022-08-21T16:39:48;5.32;;;1.42;;
46593;SDS011;35342;52.378;4.648;2022-08-21T16:42:15;4.28;;;1.48;;
46593;SDS011;35342;52.378;4.648;2022-08-21T16:44:46;10.27;;;1.85;;
46593;SDS011;35342;52.378;4.648;2022-08-21T16:47:14;4.45;;;1.58;;
46593;SDS011;35342;52.378;4.648;2022-08-21T16:49:40;6.60;;;1.73;;
46593;SDS011;35342;52.378;4.648;2022-08-21T16:52:07;8.27;;;1.63;;
46593;SDS011;35342;52.378;4.648;2022-08-21T16:54:33;10.75;;;2.80;;
46593;SDS011;35342;52.378;4.648;2022-08-21T16:56:59;8.02;;;2.15;;
46593;SDS011;35342;52.378;4.648;2022-08-21T16:59:28;6.90;;;1.85;;
46593;SDS011;35342;52.378;4.648;2022-08-21T17:01:54;4.47;;;1.38;;